createdAt,value
2022-10-17T00:01:13.892Z,5.04
2022-10-17T00:03:42.353Z,4.96
2022-10-17T00:06:12.945Z,4.69
2022-10-17T00:08:41.550Z,3.93
2022-10-17T00:11:29.930Z,3.72
2022-10-17T00:13:58.925Z,4.29
2022-10-17T00:16:33.842Z,4.32
2022-10-17T00:19:02.402Z,3.97
2022-10-17T00:21:30.639Z,3.63
2022-10-17T00:23:59.946Z,3.59
2022-10-17T00:26:29.885Z,3.97
2022-10-17T00:28:59.604Z,3.85
2022-10-17T00:31:28.714Z,3.57
2022-10-17T00:33:57.080Z,3.27
2022-10-17T00:36:26.876Z,3.34
2022-10-17T00:38:57.274Z,3.29
2022-10-17T00:41:28.401Z,3.45
2022-10-17T00:44:01.902Z,3.47
2022-10-17T00:46:39.311Z,3.23
2022-10-17T00:49:11.563Z,3.28
2022-10-17T00:51:43.109Z,3.69
2022-10-17T00:54:12.177Z,4.40
2022-10-17T00:56:40.852Z,3.63
2022-10-17T00:59:09.838Z,4.11
2022-10-17T01:01:43.081Z,3.68
2022-10-17T01:04:11.839Z,3.46
2022-10-17T01:06:41.038Z,3.79
2022-10-17T01:09:09.680Z,3.54
2022-10-17T01:11:46.014Z,4.22
2022-10-17T01:14:30.598Z,4.20
2022-10-17T01:17:04.880Z,2.71
2022-10-17T01:19:49.165Z,2.92
2022-10-17T01:22:33.184Z,3.35
2022-10-17T01:25:11.701Z,3.50
2022-10-17T01:28:21.345Z,3.19
2022-10-17T01:31:43.764Z,3.33
2022-10-17T01:34:23.041Z,3.38
2022-10-17T01:37:15.217Z,2.37
2022-10-17T01:39:47.927Z,2.62
2022-10-17T01:42:22.431Z,3.45
2022-10-17T01:44:55.941Z,3.54
2022-10-17T01:47:29.955Z,3.57
2022-10-17T01:50:02.350Z,3.53
2022-10-17T01:52:41.101Z,3.16
2022-10-17T01:55:29.751Z,2.64
2022-10-17T01:58:01.783Z,2.91
2022-10-17T02:00:30.134Z,3.60
2022-10-17T02:03:04.002Z,3.31
2022-10-17T02:05:34.329Z,2.68
2022-10-17T02:08:03.250Z,3.30
2022-10-17T02:10:56.057Z,3.39
2022-10-17T02:13:44.137Z,3.59
2022-10-17T02:16:47.572Z,3.73
2022-10-17T02:19:22.036Z,3.72
2022-10-17T02:22:02.166Z,3.64
2022-10-17T02:24:41.204Z,2.96
2022-10-17T02:27:34.622Z,2.50
2022-10-17T02:30:11.223Z,2.26
2022-10-17T02:32:49.519Z,2.16
2022-10-17T02:35:22.073Z,2.30
2022-10-17T02:37:50.405Z,2.98
2022-10-17T02:40:20.120Z,2.86
2022-10-17T02:42:48.485Z,2.70
2022-10-17T02:45:16.982Z,3.25
2022-10-17T02:48:13.922Z,3.29
2022-10-17T02:51:07.349Z,3.56
2022-10-17T02:53:45.025Z,3.70
2022-10-17T02:56:17.296Z,3.67
2022-10-17T02:58:52.457Z,3.48
2022-10-17T03:01:20.852Z,3.08
2022-10-17T03:03:49.235Z,2.50
2022-10-17T03:06:18.129Z,2.75
2022-10-17T03:08:47.643Z,2.39
2022-10-17T03:11:16.795Z,2.28
2022-10-17T03:13:45.404Z,2.45
2022-10-17T03:16:14.418Z,2.38
2022-10-17T03:18:45.395Z,2.18
2022-10-17T03:21:17.044Z,2.00
2022-10-17T03:23:45.371Z,2.55
2022-10-17T03:26:15.759Z,2.48
2022-10-17T03:28:44.297Z,2.15
2022-10-17T03:31:16.479Z,2.51
2022-10-17T03:33:46.797Z,3.01
2022-10-17T03:36:16.798Z,3.15
2022-10-17T03:38:46.641Z,3.27
2022-10-17T03:41:15.102Z,3.15
2022-10-17T03:43:43.872Z,2.50
2022-10-17T03:46:12.340Z,2.59
2022-10-17T03:48:41.125Z,2.84
2022-10-17T03:51:10.148Z,1.92
2022-10-17T03:53:46.816Z,1.55
2022-10-17T03:56:22.847Z,1.17
2022-10-17T03:59:02.682Z,1.57
2022-10-17T04:01:33.557Z,1.16
2022-10-17T04:04:02.052Z,1.23
2022-10-17T04:06:33.450Z,1.40
2022-10-17T04:09:02.224Z,1.25
2022-10-17T04:11:40.417Z,1.26
2022-10-17T04:14:11.399Z,1.15
2022-10-17T04:16:42.020Z,1.45
2022-10-17T04:19:16.130Z,1.83
2022-10-17T04:21:47.722Z,2.29
2022-10-17T04:24:16.915Z,2.13
2022-10-17T04:26:50.465Z,2.39
2022-10-17T04:29:20.264Z,2.43
2022-10-17T04:31:52.734Z,2.43
2022-10-17T04:34:31.633Z,1.92
2022-10-17T04:37:00.072Z,1.64
2022-10-17T04:39:30.436Z,0.95
2022-10-17T04:41:59.430Z,1.17
2022-10-17T04:44:31.187Z,1.13
2022-10-17T04:47:00.397Z,1.11
2022-10-17T04:49:28.981Z,1.37
2022-10-17T04:52:04.080Z,1.63
2022-10-17T04:54:39.157Z,1.66
2022-10-17T04:57:10.654Z,1.63
2022-10-17T04:59:41.188Z,1.63
2022-10-17T05:02:38.845Z,1.83
2022-10-17T05:05:08.694Z,2.09
2022-10-17T05:07:40.933Z,2.11
2022-10-17T05:10:14.157Z,2.35
2022-10-17T05:12:50.591Z,2.54
2022-10-17T05:15:20.757Z,2.67
2022-10-17T05:17:49.336Z,2.82
2022-10-17T05:20:18.093Z,3.18
2022-10-17T05:22:46.691Z,3.32
2022-10-17T05:25:15.346Z,3.34
2022-10-17T05:27:44.375Z,3.12
2022-10-17T05:30:12.981Z,3.02
2022-10-17T05:32:42.372Z,2.28
2022-10-17T05:35:11.198Z,2.71
2022-10-17T05:37:40.499Z,3.22
2022-10-17T05:40:10.118Z,3.30
2022-10-17T05:45:12.489Z,3.82
2022-10-17T05:47:41.243Z,3.96
2022-10-17T05:50:10.773Z,4.38
2022-10-17T05:52:57.559Z,4.75
2022-10-17T05:55:26.088Z,5.96
2022-10-17T05:57:55.282Z,7.30
2022-10-17T06:00:26.098Z,8.17
2022-10-17T06:03:00.553Z,8.24
2022-10-17T06:05:29.207Z,8.31
2022-10-17T06:08:01.117Z,8.43
2022-10-17T06:10:33.948Z,8.86
2022-10-17T06:13:04.131Z,9.81
2022-10-17T06:15:32.630Z,10.85
2022-10-17T06:18:06.502Z,12.55
2022-10-17T06:20:35.045Z,13.30
2022-10-17T06:23:04.405Z,13.16
2022-10-17T06:25:53.301Z,13.13
2022-10-17T06:28:21.730Z,13.15
2022-10-17T06:30:50.328Z,12.75
2022-10-17T06:33:18.721Z,14.04
2022-10-17T06:35:56.652Z,14.66
2022-10-17T06:38:26.719Z,15.31
2022-10-17T06:41:08.596Z,15.65
2022-10-17T06:43:38.308Z,16.43
2022-10-17T06:46:30.166Z,16.56
2022-10-17T06:49:06.862Z,16.92
2022-10-17T06:51:49.311Z,17.17
2022-10-17T06:54:20.753Z,17.21
2022-10-17T06:57:07.438Z,17.18
2022-10-17T06:59:59.942Z,17.83
2022-10-17T07:02:45.281Z,17.80
2022-10-17T07:05:14.323Z,17.99
2022-10-17T07:07:44.773Z,17.81
2022-10-17T07:10:15.578Z,18.25
2022-10-17T07:12:46.118Z,18.07
2022-10-17T07:15:16.871Z,18.59
2022-10-17T07:17:51.088Z,18.26
2022-10-17T07:20:20.691Z,18.39
2022-10-17T07:22:49.280Z,18.20
2022-10-17T07:25:17.965Z,18.24
2022-10-17T07:27:52.364Z,18.45
2022-10-17T07:30:22.451Z,18.89
2022-10-17T07:33:08.358Z,18.82
2022-10-17T07:35:41.269Z,18.99
2022-10-17T07:38:10.199Z,18.88
2022-10-17T07:40:38.872Z,18.86
2022-10-17T07:43:07.549Z,19.57
2022-10-17T07:45:36.765Z,19.51
2022-10-17T07:48:05.903Z,19.44
2022-10-17T07:50:34.939Z,19.77
2022-10-17T07:53:03.398Z,19.66
2022-10-17T07:55:31.779Z,18.94
2022-10-17T07:58:01.150Z,19.57
2022-10-17T08:00:29.558Z,20.26
2022-10-17T08:02:57.976Z,20.18
2022-10-17T08:05:26.523Z,20.48
2022-10-17T08:07:55.511Z,20.54
2022-10-17T08:10:28.307Z,20.21
2022-10-17T08:12:59.670Z,20.30
2022-10-17T08:15:31.787Z,19.65
2022-10-17T08:18:00.931Z,19.24
2022-10-17T08:20:29.433Z,18.44
2022-10-17T08:22:57.763Z,17.92
2022-10-17T08:25:27.966Z,16.89
2022-10-17T08:27:56.715Z,15.82
2022-10-17T08:30:25.778Z,15.17
2022-10-17T08:32:56.403Z,15.31
2022-10-17T08:35:25.136Z,15.06
2022-10-17T08:37:53.736Z,14.94
2022-10-17T08:40:25.750Z,14.82
2022-10-17T08:43:25.824Z,14.77
2022-10-17T08:45:56.961Z,13.78
2022-10-17T08:48:26.250Z,13.79
2022-10-17T08:51:11.490Z,14.33
2022-10-17T08:54:00.891Z,13.91
2022-10-17T08:56:50.286Z,13.12
2022-10-17T08:59:24.294Z,13.66
2022-10-17T09:02:14.402Z,13.81
2022-10-17T09:04:45.624Z,13.40
2022-10-17T09:07:26.577Z,14.13
2022-10-17T09:10:21.253Z,13.55
2022-10-17T09:13:46.551Z,13.99
2022-10-17T09:16:33.352Z,14.24
2022-10-17T09:19:09.644Z,14.35
2022-10-17T09:21:38.201Z,13.42
2022-10-17T09:24:15.821Z,13.48
2022-10-17T09:26:46.138Z,14.07
2022-10-17T09:29:24.730Z,13.80
2022-10-17T09:32:01.742Z,13.89
2022-10-17T09:34:31.589Z,14.38
2022-10-17T09:37:00.833Z,14.38
2022-10-17T09:39:33.293Z,15.17
2022-10-17T09:42:01.973Z,15.10
2022-10-17T09:44:33.973Z,15.33
2022-10-17T09:47:38.682Z,15.06
2022-10-17T09:50:29.301Z,15.82
2022-10-17T09:53:03.109Z,14.71
2022-10-17T09:55:46.120Z,15.42
2022-10-17T09:58:14.863Z,14.65
2022-10-17T10:00:45.676Z,15.82
2022-10-17T10:03:20.216Z,15.44
2022-10-17T10:06:18.798Z,15.73
2022-10-17T10:08:54.075Z,15.72
2022-10-17T10:11:46.661Z,15.92
2022-10-17T10:14:23.488Z,15.64
2022-10-17T10:16:53.975Z,15.89
2022-10-17T10:19:37.308Z,16.11
2022-10-17T10:22:08.983Z,15.71
2022-10-17T10:24:37.694Z,15.73
2022-10-17T10:27:06.053Z,15.38
2022-10-17T10:29:39.131Z,15.98
2022-10-17T10:32:32.526Z,15.85
2022-10-17T10:35:01.049Z,16.01
2022-10-17T10:37:33.120Z,16.35
2022-10-17T10:40:04.439Z,16.55
2022-10-17T10:42:39.753Z,16.24
2022-10-17T10:45:19.150Z,17.16
2022-10-17T10:47:59.096Z,16.73
2022-10-17T10:50:33.050Z,16.90
2022-10-17T10:53:22.822Z,16.72
2022-10-17T10:56:00.035Z,16.93
2022-10-17T10:58:42.132Z,17.02
2022-10-17T11:01:33.114Z,16.99
2022-10-17T11:04:27.163Z,16.78
2022-10-17T11:07:43.554Z,16.97
2022-10-17T11:10:12.208Z,17.21
2022-10-17T11:12:47.996Z,17.54
2022-10-17T11:15:43.209Z,17.21
2022-10-17T11:18:32.975Z,17.18
2022-10-17T11:21:05.516Z,16.57
2022-10-17T11:23:49.138Z,17.61
2022-10-17T11:26:27.099Z,18.14
2022-10-17T11:29:00.812Z,18.02
2022-10-17T11:31:39.481Z,18.07
2022-10-17T11:34:08.928Z,18.19
2022-10-17T11:36:39.930Z,17.78
2022-10-17T11:39:09.429Z,17.34
2022-10-17T11:41:46.976Z,17.10
2022-10-17T11:44:39.970Z,16.91
2022-10-17T11:47:22.581Z,17.98
2022-10-17T11:49:52.868Z,17.31
2022-10-17T11:52:56.009Z,16.95
2022-10-17T11:55:36.100Z,16.54
2022-10-17T11:58:04.464Z,17.12
2022-10-17T12:01:06.904Z,17.21
2022-10-17T12:04:00.160Z,16.85
2022-10-17T12:06:55.586Z,17.77
2022-10-17T12:09:28.061Z,17.70
2022-10-17T12:12:02.851Z,17.38
2022-10-17T12:14:34.264Z,17.33
2022-10-17T12:17:02.915Z,17.38
2022-10-17T12:19:35.832Z,17.25
2022-10-17T12:22:13.303Z,17.16
2022-10-17T12:24:44.420Z,17.39
2022-10-17T12:27:47.113Z,17.39
2022-10-17T12:30:18.033Z,17.60
2022-10-17T12:33:07.186Z,17.68
2022-10-17T12:35:37.862Z,17.78
2022-10-17T12:38:19.245Z,17.28
2022-10-17T12:40:50.717Z,17.32
2022-10-17T12:43:19.115Z,17.37
2022-10-17T12:45:54.491Z,17.64
2022-10-17T12:48:35.707Z,17.74
2022-10-17T12:51:35.285Z,17.05
2022-10-17T12:54:15.225Z,17.63
2022-10-17T12:56:45.943Z,16.86
2022-10-17T12:59:22.949Z,17.41
2022-10-17T13:01:53.673Z,17.17
2022-10-17T13:04:22.829Z,17.65
2022-10-17T13:06:55.934Z,17.19
2022-10-17T13:09:27.333Z,17.66
2022-10-17T13:11:57.753Z,17.88
2022-10-17T13:14:26.712Z,16.98
2022-10-17T13:16:56.127Z,17.02
2022-10-17T13:19:26.955Z,16.78
2022-10-17T13:22:06.523Z,17.20
2022-10-17T13:24:40.010Z,17.79
2022-10-17T13:27:30.459Z,17.41
2022-10-17T13:30:00.726Z,17.53
2022-10-17T13:32:40.093Z,17.57
2022-10-17T13:35:13.532Z,17.65
2022-10-17T13:37:43.481Z,17.47
2022-10-17T13:40:49.938Z,17.81
2022-10-17T13:43:24.551Z,17.44
2022-10-17T13:46:02.312Z,17.55
2022-10-17T13:48:37.799Z,17.60
2022-10-17T13:51:10.338Z,17.14
2022-10-17T13:53:42.878Z,16.65
2022-10-17T13:56:27.309Z,17.00
2022-10-17T13:59:06.109Z,17.72
2022-10-17T14:01:34.596Z,16.89
2022-10-17T14:04:09.264Z,16.92
2022-10-17T14:06:49.368Z,17.11
2022-10-17T14:09:22.976Z,16.56
2022-10-17T14:12:19.377Z,16.15
2022-10-17T14:15:09.716Z,16.53
2022-10-17T14:17:39.156Z,15.45
2022-10-17T14:20:40.776Z,16.22
2022-10-17T14:23:22.552Z,16.33
2022-10-17T14:25:46.495Z,16.14
2022-10-17T14:28:16.208Z,15.52
2022-10-17T14:30:57.871Z,15.10
2022-10-17T14:33:31.095Z,15.57
2022-10-17T14:36:01.317Z,15.88
2022-10-17T14:38:30.215Z,16.10
2022-10-17T14:41:43.261Z,15.86
2022-10-17T14:44:20.252Z,16.21
2022-10-17T14:46:54.812Z,16.00
2022-10-17T14:49:39.724Z,15.47
2022-10-17T14:52:18.567Z,15.57
2022-10-17T14:54:48.994Z,15.44
2022-10-17T14:57:29.778Z,15.79
2022-10-17T14:59:59.022Z,15.95
2022-10-17T15:02:30.249Z,15.44
2022-10-17T15:04:59.088Z,15.60
2022-10-17T15:07:28.415Z,15.41
2022-10-17T15:09:57.438Z,15.35
2022-10-17T15:12:26.402Z,15.09
2022-10-17T15:14:54.995Z,15.51
2022-10-17T15:17:31.596Z,15.78
2022-10-17T15:20:01.290Z,15.96
2022-10-17T15:22:31.955Z,15.86
2022-10-17T15:25:00.697Z,15.71
2022-10-17T15:27:33.183Z,15.83
2022-10-17T15:30:04.940Z,15.58
2022-10-17T15:32:36.502Z,15.22
2022-10-17T15:35:05.079Z,15.48
2022-10-17T15:37:34.129Z,15.34
2022-10-17T15:40:04.293Z,15.02
2022-10-17T15:42:32.807Z,15.23
2022-10-17T15:45:02.968Z,15.05
2022-10-17T15:47:36.469Z,14.86
2022-10-17T15:50:07.894Z,14.41
2022-10-17T15:52:37.125Z,14.33
2022-10-17T15:55:09.517Z,14.55
2022-10-17T15:57:40.570Z,14.33
2022-10-17T16:00:20.485Z,14.06
2022-10-17T16:02:50.968Z,14.32
2022-10-17T16:05:29.315Z,14.01
2022-10-17T16:07:59.406Z,13.63
2022-10-17T16:10:28.478Z,13.67
2022-10-17T16:12:57.607Z,13.71
2022-10-17T16:15:28.263Z,13.39
2022-10-17T16:18:00.443Z,12.97
2022-10-17T16:20:32.598Z,13.08
2022-10-17T16:23:04.850Z,13.30
2022-10-17T16:25:41.163Z,13.43
2022-10-17T16:28:10.005Z,12.92
2022-10-17T16:30:43.850Z,13.15
2022-10-17T16:33:13.552Z,12.97
2022-10-17T16:35:43.269Z,12.95
2022-10-17T16:38:13.146Z,12.62
2022-10-17T16:40:44.111Z,11.62
2022-10-17T16:43:16.692Z,10.70
2022-10-17T16:45:45.571Z,10.79
2022-10-17T16:48:14.198Z,11.06
2022-10-17T16:50:46.162Z,10.60
2022-10-17T16:53:15.674Z,10.31
2022-10-17T16:55:48.196Z,9.96
2022-10-17T16:58:18.424Z,10.81
2022-10-17T17:00:52.227Z,11.03
2022-10-17T17:03:21.410Z,11.10
2022-10-17T17:05:53.258Z,11.42
2022-10-17T17:08:24.545Z,10.82
2022-10-17T17:10:55.688Z,10.23
2022-10-17T17:13:24.353Z,10.42
2022-10-17T17:15:55.334Z,9.56
2022-10-17T17:18:24.880Z,10.25
2022-10-17T17:20:58.995Z,10.40
2022-10-17T17:23:33.653Z,9.90
2022-10-17T17:26:06.839Z,10.45
2022-10-17T17:28:37.535Z,10.32
2022-10-17T17:31:19.358Z,9.73
2022-10-17T17:33:49.316Z,10.05
2022-10-17T17:36:26.436Z,10.06
2022-10-17T17:39:04.414Z,9.52
2022-10-17T17:44:23.816Z,9.15
2022-10-17T17:46:56.651Z,9.44
2022-10-17T17:49:34.888Z,9.67
2022-10-17T17:52:14.413Z,9.79
2022-10-17T17:54:51.131Z,9.21
2022-10-17T17:57:33.287Z,9.63
2022-10-17T18:00:08.075Z,9.71
2022-10-17T18:02:44.574Z,9.55
2022-10-17T18:05:25.214Z,9.60
2022-10-17T18:08:18.123Z,9.45
2022-10-17T18:11:00.459Z,9.18
2022-10-17T18:13:34.335Z,9.26
2022-10-17T18:16:17.761Z,8.37
2022-10-17T18:18:56.140Z,8.36
2022-10-17T18:21:33.085Z,8.77
2022-10-17T18:24:05.906Z,8.79
2022-10-17T18:26:43.674Z,8.35
2022-10-17T18:29:26.064Z,7.70
2022-10-17T18:32:02.454Z,7.41
2022-10-17T18:34:40.419Z,8.03
2022-10-17T18:37:25.583Z,7.45
2022-10-17T18:39:57.753Z,8.28
2022-10-17T18:42:27.269Z,8.34
2022-10-17T18:45:00.187Z,8.38
2022-10-17T18:47:34.323Z,8.15
2022-10-17T18:50:04.786Z,8.32
2022-10-17T18:52:36.664Z,8.41
2022-10-17T18:55:08.507Z,8.13
2022-10-17T18:57:40.722Z,8.17
2022-10-17T19:00:19.714Z,8.13
2022-10-17T19:02:48.324Z,8.03
2022-10-17T19:05:17.357Z,8.14
2022-10-17T19:07:50.411Z,7.48
2022-10-17T19:10:19.217Z,8.17
2022-10-17T19:12:50.685Z,8.29
2022-10-17T19:15:23.823Z,8.52
2022-10-17T19:17:55.733Z,8.31
2022-10-17T19:20:36.294Z,8.04
2022-10-17T19:23:05.383Z,8.28
2022-10-17T19:25:34.316Z,8.11
2022-10-17T19:28:03.541Z,8.09
2022-10-17T19:30:33.373Z,8.11
2022-10-17T19:33:02.024Z,7.90
2022-10-17T19:35:32.036Z,7.79
2022-10-17T19:38:01.023Z,7.71
2022-10-17T19:40:30.233Z,7.65
2022-10-17T19:42:59.491Z,7.78
2022-10-17T19:45:28.381Z,7.49
2022-10-17T19:47:56.901Z,7.71
2022-10-17T19:50:26.389Z,7.64
2022-10-17T19:52:55.662Z,7.51
2022-10-17T19:55:24.205Z,7.70
2022-10-17T19:57:53.096Z,7.56
2022-10-17T20:00:26.381Z,7.48
2022-10-17T20:02:55.259Z,7.50
2022-10-17T20:05:27.298Z,7.51
2022-10-17T20:07:56.682Z,7.38
2022-10-17T20:10:25.923Z,7.58
2022-10-17T20:12:54.641Z,7.23
2022-10-17T20:15:23.082Z,6.21
2022-10-17T20:17:51.560Z,6.26
2022-10-17T20:20:20.361Z,6.31
2022-10-17T20:22:48.810Z,5.71
2022-10-17T20:25:20.507Z,6.33
2022-10-17T20:27:49.503Z,6.80
2022-10-17T20:30:20.355Z,6.55
2022-10-17T20:32:55.516Z,6.72
2022-10-17T20:35:24.903Z,6.82
2022-10-17T20:37:55.291Z,6.92
2022-10-17T20:40:40.206Z,6.89
2022-10-17T20:43:12.395Z,6.57
2022-10-17T20:45:50.777Z,6.28
2022-10-17T20:48:21.361Z,6.61
2022-10-17T20:50:49.903Z,6.23
2022-10-17T20:53:35.909Z,4.89
2022-10-17T20:56:12.600Z,5.22
2022-10-17T20:58:40.989Z,5.90
2022-10-17T21:01:09.976Z,6.45
2022-10-17T21:03:42.381Z,6.28
2022-10-17T21:06:14.480Z,6.29
2022-10-17T21:08:43.017Z,6.16
2022-10-17T21:11:13.499Z,5.27
2022-10-17T21:13:42.374Z,5.45
2022-10-17T21:16:16.591Z,5.68
2022-10-17T21:18:45.233Z,5.49
2022-10-17T21:21:21.716Z,5.44
2022-10-17T21:23:51.090Z,4.73
2022-10-17T21:26:19.769Z,5.30
2022-10-17T21:28:49.220Z,5.30
2022-10-17T21:31:20.522Z,5.50
2022-10-17T21:33:53.561Z,5.69
2022-10-17T21:36:22.519Z,5.28
2022-10-17T21:38:52.021Z,5.63
2022-10-17T21:41:21.988Z,5.90
2022-10-17T21:43:58.257Z,5.77
2022-10-17T21:46:26.829Z,5.94
2022-10-17T21:48:55.199Z,5.64
2022-10-17T21:51:25.129Z,5.59
2022-10-17T21:53:54.898Z,5.61
2022-10-17T21:56:25.174Z,5.44
2022-10-17T21:58:53.486Z,5.67
2022-10-17T22:01:26.632Z,5.37
2022-10-17T22:03:57.220Z,5.33
2022-10-17T22:06:42.764Z,4.34
2022-10-17T22:09:16.670Z,4.61
2022-10-17T22:11:47.167Z,4.95
2022-10-17T22:14:18.516Z,5.19
2022-10-17T22:16:47.175Z,5.13
2022-10-17T22:19:17.552Z,4.54
2022-10-17T22:21:45.906Z,4.83
2022-10-17T22:24:16.238Z,4.95
2022-10-17T22:26:45.635Z,5.18
2022-10-17T22:29:14.041Z,5.19
2022-10-17T22:31:43.581Z,5.04
2022-10-17T22:34:13.633Z,4.52
2022-10-17T22:36:42.012Z,4.87
2022-10-17T22:39:10.421Z,4.44
2022-10-17T22:41:38.785Z,3.63
2022-10-17T22:44:07.322Z,3.97
2022-10-17T22:46:35.554Z,3.70
2022-10-17T22:49:03.931Z,4.05
2022-10-17T22:51:32.237Z,4.14
2022-10-17T22:54:00.551Z,3.18
2022-10-17T22:56:30.041Z,3.13
2022-10-17T22:58:58.464Z,2.93
2022-10-17T23:01:26.927Z,3.55
2022-10-17T23:03:55.407Z,3.73
2022-10-17T23:06:24.421Z,4.06
2022-10-17T23:08:52.813Z,4.19
2022-10-17T23:11:21.717Z,3.62
2022-10-17T23:13:50.088Z,3.67
2022-10-17T23:16:18.612Z,4.21
2022-10-17T23:18:46.996Z,4.49
2022-10-17T23:21:15.780Z,4.69
2022-10-17T23:23:44.601Z,4.71
2022-10-17T23:26:14.498Z,4.41
2022-10-17T23:28:43.225Z,3.44
2022-10-17T23:31:15.583Z,2.78
2022-10-17T23:33:45.318Z,3.46
2022-10-17T23:36:15.676Z,2.86
2022-10-17T23:38:44.804Z,3.49
2022-10-17T23:41:13.444Z,3.72
2022-10-17T23:43:41.837Z,3.73
2022-10-17T23:46:10.324Z,3.15
2022-10-17T23:48:39.921Z,3.20
2022-10-17T23:51:09.059Z,3.90
2022-10-17T23:53:38.179Z,3.82
2022-10-17T23:56:07.002Z,2.74
2022-10-17T23:58:36.663Z,2.92
